Time;durP1;ratioP1;P1;durP2;ratioP2;P2;SDS_P1;SDS_P2;PMS_P1;PMS_P2;Temp;Humidity;BMP_temperature;BMP_pressure;BME280_temperature;BME280_humidity;BME280_pressure;Samples;Min_cycle;Max_cycle;Signal;HPM_P1;HPM_P2
2022/06/08 00:01:51;;;;;;;3.60;1.43;;;;;;;;;;5060784;28;20206;-75
2022/06/08 00:04:22;;;;;;;2.67;1.20;;;;;;;;;;5060570;28;20354;-75
2022/06/08 00:06:49;;;;;;;3.90;1.60;;;;;;;;;;5057464;28;20619;-75
2022/06/08 00:09:17;;;;;;;6.67;1.53;;;;;;;;;;5061099;28;20211;-75
2022/06/08 00:11:46;;;;;;;9.50;2.50;;;;;;;;;;5058654;28;20219;-75
2022/06/08 00:14:13;;;;;;;4.47;2.17;;;;;;;;;;5062983;28;20207;-74
2022/06/08 00:16:40;;;;;;;5.13;2.40;;;;;;;;;;5058924;28;20291;-75
2022/06/08 00:19:08;;;;;;;6.23;2.60;;;;;;;;;;5058471;28;20206;-75
2022/06/08 00:21:35;;;;;;;3.67;2.50;;;;;;;;;;5060692;28;20203;-75
2022/06/08 00:24:02;;;;;;;6.63;2.40;;;;;;;;;;5060367;28;20255;-75
2022/06/08 00:26:30;;;;;;;15.33;3.10;;;;;;;;;;5057346;28;20233;-75
2022/06/08 00:28:58;;;;;;;10.97;2.87;;;;;;;;;;5060876;28;20275;-75
2022/06/08 00:31:26;;;;;;;18.40;2.80;;;;;;;;;;5057940;28;20227;-74
2022/06/08 00:33:53;;;;;;;13.43;2.40;;;;;;;;;;5060279;28;20449;-75
2022/06/08 00:36:20;;;;;;;14.70;3.00;;;;;;;;;;5057873;28;20781;-75
2022/06/08 00:38:48;;;;;;;3.60;2.07;;;;;;;;;;5056241;28;20202;-75
2022/06/08 00:41:26;;;;;;;6.90;2.77;;;;;;;;;;5060687;28;20199;-75
2022/06/08 00:43:53;;;;;;;24.53;3.70;;;;;;;;;;5060898;28;20240;-75
2022/06/08 00:46:22;;;;;;;7.63;2.73;;;;;;;;;;5062708;28;20320;-75
2022/06/08 00:48:52;;;;;;;19.10;3.50;;;;;;;;;;5059120;28;20284;-75
2022/06/08 00:51:19;;;;;;;10.23;2.60;;;;;;;;;;5060687;28;20249;-75
2022/06/08 00:53:49;;;;;;;11.70;2.83;;;;;;;;;;5056262;28;20568;-74
2022/06/08 00:56:17;;;;;;;22.13;2.80;;;;;;;;;;5056553;28;20349;-74
2022/06/08 00:58:45;;;;;;;20.23;2.70;;;;;;;;;;5060956;28;20203;-75
2022/06/08 01:01:13;;;;;;;30.43;2.27;;;;;;;;;;5058752;28;20578;-75
2022/06/08 01:03:42;;;;;;;20.17;2.50;;;;;;;;;;5057910;28;20213;-75
2022/06/08 01:06:16;;;;;;;35.57;3.00;;;;;;;;;;5058474;28;20704;-75
2022/06/08 01:08:45;;;;;;;15.27;2.60;;;;;;;;;;5058035;28;20665;-75
2022/06/08 01:11:13;;;;;;;19.47;2.53;;;;;;;;;;5059276;28;20651;-74
2022/06/08 01:13:42;;;;;;;4.97;2.50;;;;;;;;;;5058774;28;20211;-74
2022/06/08 01:16:11;;;;;;;20.87;2.73;;;;;;;;;;5057344;28;20297;-74
2022/06/08 01:18:39;;;;;;;23.47;3.13;;;;;;;;;;5062826;28;20210;-74
2022/06/08 01:21:24;;;;;;;42.70;3.23;;;;;;;;;;5062007;28;20281;-74
2022/06/08 01:23:56;;;;;;;15.30;2.80;;;;;;;;;;5060742;28;20237;-75
2022/06/08 01:26:25;;;;;;;7.00;2.80;;;;;;;;;;5059138;28;20289;-75
2022/06/08 01:28:56;;;;;;;4.77;2.50;;;;;;;;;;5056522;28;20211;-74
2022/06/08 01:31:28;;;;;;;8.63;2.30;;;;;;;;;;5058254;28;20321;-75
2022/06/08 01:33:59;;;;;;;2.70;1.97;;;;;;;;;;5056876;28;20309;-75
2022/06/08 01:36:34;;;;;;;9.97;2.60;;;;;;;;;;5059576;28;20293;-75
2022/06/08 01:39:06;;;;;;;8.90;2.60;;;;;;;;;;5058425;28;20754;-75
2022/06/08 01:41:39;;;;;;;14.10;2.90;;;;;;;;;;5058418;28;20194;-75
2022/06/08 01:44:12;;;;;;;11.23;2.67;;;;;;;;;;5058323;28;20794;-75
2022/06/08 01:46:41;;;;;;;9.73;3.33;;;;;;;;;;5056435;28;20292;-75
2022/06/08 01:49:15;;;;;;;30.07;3.07;;;;;;;;;;5059227;28;20209;-75
2022/06/08 01:51:47;;;;;;;14.57;3.13;;;;;;;;;;5057272;28;20311;-74
2022/06/08 01:54:19;;;;;;;30.60;3.10;;;;;;;;;;5057735;28;20206;-75
2022/06/08 01:56:49;;;;;;;36.83;3.70;;;;;;;;;;5055490;28;20281;-77
2022/06/08 01:59:23;;;;;;;45.77;3.77;;;;;;;;;;5057835;28;20210;-74
2022/06/08 02:01:54;;;;;;;14.33;3.37;;;;;;;;;;5058895;28;20273;-77
2022/06/08 02:04:26;;;;;;;17.30;2.80;;;;;;;;;;5057469;28;20314;-76
2022/06/08 02:06:57;;;;;;;31.47;3.80;;;;;;;;;;5057418;28;20207;-75
2022/06/08 02:09:30;;;;;;;31.33;3.60;;;;;;;;;;5060807;28;20297;-76
2022/06/08 02:12:01;;;;;;;18.50;3.50;;;;;;;;;;5057366;28;20844;-75
2022/06/08 02:14:30;;;;;;;18.23;3.67;;;;;;;;;;5060040;28;20234;-74
2022/06/08 02:17:03;;;;;;;24.27;3.47;;;;;;;;;;5059008;28;20214;-75
2022/06/08 02:19:33;;;;;;;16.93;3.73;;;;;;;;;;5056311;28;20202;-74
2022/06/08 02:22:05;;;;;;;13.03;3.60;;;;;;;;;;5054862;28;20203;-77
2022/06/08 02:24:36;;;;;;;11.60;3.50;;;;;;;;;;5056471;28;20325;-76
2022/06/08 02:27:05;;;;;;;22.10;4.20;;;;;;;;;;5055768;28;20321;-75
2022/06/08 02:29:36;;;;;;;20.77;3.40;;;;;;;;;;5055565;28;20202;-76
2022/06/08 02:34:27;;;;;;;15.67;3.77;;;;;;;;;;5054347;28;20311;-76
2022/06/08 02:34:54;;;;;;;30.23;4.03;;;;;;;;;;5060369;28;20230;-75
2022/06/08 02:37:23;;;;;;;15.67;3.43;;;;;;;;;;5053928;28;20729;-76
2022/06/08 02:39:53;;;;;;;13.13;3.77;;;;;;;;;;5054977;28;20297;-76
2022/06/08 02:42:23;;;;;;;13.27;3.83;;;;;;;;;;5055660;28;20299;-77
2022/06/08 02:44:52;;;;;;;13.13;3.63;;;;;;;;;;5054652;28;20293;-76
2022/06/08 02:47:27;;;;;;;20.60;3.87;;;;;;;;;;5058530;28;20323;-75
2022/06/08 02:49:54;;;;;;;13.23;3.77;;;;;;;;;;5059565;28;20210;-76
2022/06/08 02:52:23;;;;;;;8.67;3.57;;;;;;;;;;5057308;28;20317;-76
2022/06/08 02:54:52;;;;;;;16.93;3.50;;;;;;;;;;5055403;28;20316;-76
2022/06/08 02:57:25;;;;;;;32.20;3.93;;;;;;;;;;5058407;28;20294;-76
2022/06/08 02:59:54;;;;;;;17.37;4.40;;;;;;;;;;5058596;28;20667;-75
2022/06/08 03:02:23;;;;;;;11.17;3.37;;;;;;;;;;5058219;28;20557;-76
2022/06/08 03:04:55;;;;;;;33.03;4.07;;;;;;;;;;5057256;28;20317;-75
2022/06/08 03:07:25;;;;;;;31.10;4.77;;;;;;;;;;5057561;28;20207;-75
2022/06/08 03:09:54;;;;;;;19.60;4.03;;;;;;;;;;5058803;28;20283;-75
2022/06/08 03:12:24;;;;;;;13.73;3.93;;;;;;;;;;5072944;22;21177;-76
2022/06/08 03:14:51;;;;;;;13.13;4.43;;;;;;;;;;5068923;28;20253;-77
2022/06/08 03:17:19;;;;;;;8.13;4.00;;;;;;;;;;5086622;28;20249;-77
2022/06/08 03:19:46;;;;;;;16.77;3.97;;;;;;;;;;5084419;28;20280;-76
2022/06/08 03:22:16;;;;;;;13.73;4.20;;;;;;;;;;5079443;28;20284;-78
2022/06/08 03:24:43;;;;;;;9.77;3.60;;;;;;;;;;5089962;28;20229;-77
2022/06/08 03:27:12;;;;;;;10.87;3.60;;;;;;;;;;5084754;28;20325;-78
2022/06/08 03:29:39;;;;;;;10.27;3.80;;;;;;;;;;5089403;28;20273;-76
2022/06/08 03:32:07;;;;;;;7.57;3.60;;;;;;;;;;5085733;28;20415;-78
2022/06/08 03:34:35;;;;;;;5.10;3.40;;;;;;;;;;5087626;28;20257;-77
2022/06/08 03:37:02;;;;;;;12.63;4.83;;;;;;;;;;5085557;28;20276;-77
2022/06/08 03:39:29;;;;;;;16.90;5.63;;;;;;;;;;5083422;28;20284;-76
2022/06/08 03:41:56;;;;;;;10.93;3.80;;;;;;;;;;5095950;28;20211;-77
2022/06/08 03:44:25;;;;;;;6.80;3.60;;;;;;;;;;5086355;28;20343;-78
2022/06/08 03:46:53;;;;;;;9.50;4.77;;;;;;;;;;5085172;28;20240;-79
2022/06/08 03:49:22;;;;;;;14.43;5.30;;;;;;;;;;5085306;28;20570;-78
2022/06/08 03:51:49;;;;;;;8.97;4.83;;;;;;;;;;5082880;28;20431;-79
2022/06/08 03:54:18;;;;;;;8.30;4.50;;;;;;;;;;5087145;28;20237;-77
2022/06/08 03:56:47;;;;;;;6.33;4.00;;;;;;;;;;5081440;28;20288;-77
2022/06/08 03:59:15;;;;;;;6.27;3.23;;;;;;;;;;5078571;28;20293;-79
2022/06/08 04:01:44;;;;;;;3.80;2.70;;;;;;;;;;5078922;28;20281;-77
2022/06/08 04:04:11;;;;;;;4.23;2.07;;;;;;;;;;5077804;28;20309;-75
2022/06/08 04:06:38;;;;;;;3.37;2.00;;;;;;;;;;5079267;28;20202;-78
2022/06/08 04:09:06;;;;;;;4.50;3.00;;;;;;;;;;5081693;28;20289;-79
2022/06/08 04:11:33;;;;;;;4.23;2.97;;;;;;;;;;5080565;28;20304;-78
2022/06/08 04:14:01;;;;;;;13.20;3.77;;;;;;;;;;5083578;28;20293;-79
2022/06/08 04:16:28;;;;;;;6.20;4.23;;;;;;;;;;5081595;28;20213;-78
2022/06/08 04:18:57;;;;;;;8.33;4.30;;;;;;;;;;5083769;28;20212;-78
2022/06/08 04:21:24;;;;;;;6.50;4.20;;;;;;;;;;5080597;28;20627;-78
2022/06/08 04:23:51;;;;;;;6.53;4.03;;;;;;;;;;5084640;28;20289;-78
2022/06/08 04:26:19;;;;;;;6.40;4.33;;;;;;;;;;5085398;28;20224;-76
2022/06/08 04:28:47;;;;;;;7.87;4.60;;;;;;;;;;5079578;28;20293;-76
2022/06/08 04:31:15;;;;;;;6.40;4.50;;;;;;;;;;5085087;28;20206;-78
2022/06/08 04:33:42;;;;;;;9.93;4.40;;;;;;;;;;5081389;28;20407;-77
2022/06/08 04:36:11;;;;;;;8.13;4.77;;;;;;;;;;5082561;28;20332;-78
2022/06/08 04:38:38;;;;;;;8.40;4.60;;;;;;;;;;5085682;28;20632;-78
2022/06/08 04:41:06;;;;;;;9.00;5.03;;;;;;;;;;5088489;28;20297;-77
2022/06/08 04:43:33;;;;;;;9.23;4.80;;;;;;;;;;5086239;28;20298;-78
2022/06/08 04:46:00;;;;;;;15.17;4.90;;;;;;;;;;5087849;28;20778;-78
2022/06/08 04:48:28;;;;;;;13.20;5.00;;;;;;;;;;5085797;28;20208;-78
2022/06/08 04:50:55;;;;;;;8.20;5.03;;;;;;;;;;5083998;28;20297;-78
2022/06/08 04:53:24;;;;;;;8.07;4.70;;;;;;;;;;5090646;28;20285;-78
2022/06/08 04:55:51;;;;;;;9.87;4.60;;;;;;;;;;5084628;28;20289;-78
2022/06/08 04:58:20;;;;;;;9.20;4.60;;;;;;;;;;5088236;28;20270;-77
2022/06/08 05:00:48;;;;;;;11.27;5.00;;;;;;;;;;5089085;28;20228;-78
2022/06/08 05:03:15;;;;;;;8.43;4.83;;;;;;;;;;5093441;28;20202;-78
2022/06/08 05:05:42;;;;;;;8.77;4.80;;;;;;;;;;5091454;28;20218;-78
2022/06/08 05:08:09;;;;;;;7.80;4.77;;;;;;;;;;5089606;28;20297;-78
2022/06/08 05:10:39;;;;;;;9.67;4.40;;;;;;;;;;5085344;28;20624;-78
2022/06/08 05:13:08;;;;;;;8.10;4.10;;;;;;;;;;5088471;28;20246;-78
2022/06/08 05:15:36;;;;;;;7.17;4.57;;;;;;;;;;5087667;28;20316;-77
2022/06/08 05:18:04;;;;;;;6.80;4.70;;;;;;;;;;5085814;28;20547;-78
2022/06/08 05:20:31;;;;;;;6.63;4.50;;;;;;;;;;5084158;28;20305;-78
2022/06/08 05:22:59;;;;;;;9.07;4.37;;;;;;;;;;5086224;28;20288;-77
2022/06/08 05:25:27;;;;;;;5.83;4.20;;;;;;;;;;5085059;28;20596;-78
2022/06/08 05:27:56;;;;;;;6.07;4.20;;;;;;;;;;5086669;28;20210;-78
2022/06/08 05:30:25;;;;;;;6.10;4.37;;;;;;;;;;5080358;28;20680;-77
2022/06/08 05:32:52;;;;;;;5.60;4.10;;;;;;;;;;5080771;28;20691;-76
2022/06/08 05:35:20;;;;;;;5.40;4.07;;;;;;;;;;5076526;28;20232;-78
2022/06/08 05:37:47;;;;;;;7.93;4.53;;;;;;;;;;5076865;28;20269;-77
2022/06/08 05:40:15;;;;;;;5.97;4.70;;;;;;;;;;5079515;28;20210;-76
2022/06/08 05:42:43;;;;;;;7.27;5.27;;;;;;;;;;5076908;28;20289;-76
2022/06/08 05:45:16;;;;;;;6.57;4.70;;;;;;;;;;5077931;28;20232;-76
2022/06/08 05:47:44;;;;;;;8.77;5.20;;;;;;;;;;5077935;28;20236;-77
2022/06/08 05:50:11;;;;;;;8.40;5.07;;;;;;;;;;5073366;28;20202;-75
2022/06/08 05:52:38;;;;;;;6.70;4.83;;;;;;;;;;5071323;28;20214;-77
2022/06/08 05:55:06;;;;;;;7.53;5.23;;;;;;;;;;5075464;28;20254;-77
2022/06/08 05:57:33;;;;;;;8.33;5.47;;;;;;;;;;5080854;28;20244;-76
2022/06/08 06:00:00;;;;;;;9.63;5.87;;;;;;;;;;5073879;28;20202;-77
2022/06/08 06:02:29;;;;;;;7.90;5.40;;;;;;;;;;5076514;28;20201;-77
2022/06/08 06:04:56;;;;;;;7.70;5.20;;;;;;;;;;5071237;28;20226;-78
2022/06/08 06:07:25;;;;;;;7.40;5.00;;;;;;;;;;5075616;28;20289;-77
2022/06/08 06:09:52;;;;;;;7.33;4.50;;;;;;;;;;5076787;28;20458;-77
2022/06/08 06:12:19;;;;;;;8.20;4.57;;;;;;;;;;5076446;28;20238;-77
2022/06/08 06:14:46;;;;;;;9.37;4.93;;;;;;;;;;5075792;28;20223;-76
2022/06/08 06:17:13;;;;;;;5.70;4.13;;;;;;;;;;5075495;28;20217;-77
2022/06/08 06:19:42;;;;;;;5.77;3.83;;;;;;;;;;5077614;28;20297;-77
2022/06/08 06:22:09;;;;;;;8.60;4.43;;;;;;;;;;5076522;28;20297;-76
2022/06/08 06:24:37;;;;;;;6.40;4.33;;;;;;;;;;5073111;28;20276;-76
2022/06/08 06:27:04;;;;;;;9.50;4.23;;;;;;;;;;5074536;28;20302;-76
2022/06/08 06:29:31;;;;;;;6.80;4.27;;;;;;;;;;5069866;28;20201;-77
2022/06/08 06:32:00;;;;;;;8.17;4.03;;;;;;;;;;5075296;28;20288;-76
2022/06/08 06:34:29;;;;;;;8.73;4.20;;;;;;;;;;5073587;28;20309;-76
2022/06/08 06:36:58;;;;;;;3.97;3.10;;;;;;;;;;5071814;28;20210;-76
2022/06/08 06:39:26;;;;;;;8.73;3.80;;;;;;;;;;5075905;28;20292;-77
2022/06/08 06:41:54;;;;;;;5.67;3.30;;;;;;;;;;5073702;28;20206;-77
2022/06/08 06:44:21;;;;;;;4.50;3.10;;;;;;;;;;5073161;28;20218;-77
2022/06/08 06:46:48;;;;;;;5.17;3.40;;;;;;;;;;5078521;28;20284;-77
2022/06/08 06:49:15;;;;;;;4.13;3.03;;;;;;;;;;5073284;28;20293;-77
2022/06/08 06:51:43;;;;;;;3.93;2.80;;;;;;;;;;5073252;28;20599;-77
2022/06/08 06:54:13;;;;;;;5.07;3.10;;;;;;;;;;5078515;28;20225;-77
2022/06/08 06:56:40;;;;;;;3.87;3.00;;;;;;;;;;5073140;28;20285;-77
2022/06/08 06:59:07;;;;;;;4.00;3.20;;;;;;;;;;5075950;28;21085;-77
2022/06/08 07:01:35;;;;;;;3.53;2.70;;;;;;;;;;5075250;28;20292;-77
2022/06/08 07:04:02;;;;;;;5.90;2.67;;;;;;;;;;5069799;28;20210;-77
2022/06/08 07:06:30;;;;;;;4.33;2.50;;;;;;;;;;5077860;28;20240;-77
2022/06/08 07:08:59;;;;;;;6.33;2.40;;;;;;;;;;5072841;28;20209;-77
2022/06/08 07:11:35;;;;;;;5.13;2.50;;;;;;;;;;5073724;28;20221;-77
2022/06/08 07:14:02;;;;;;;3.03;2.40;;;;;;;;;;5075040;28;20225;-77
2022/06/08 07:16:29;;;;;;;5.13;2.33;;;;;;;;;;5073025;28;20202;-76
2022/06/08 07:18:57;;;;;;;3.07;2.10;;;;;;;;;;5076769;28;20293;-77
2022/06/08 07:21:24;;;;;;;2.83;2.10;;;;;;;;;;5077498;28;20297;-77
2022/06/08 07:23:51;;;;;;;7.53;2.30;;;;;;;;;;5079341;28;20208;-78
2022/06/08 07:26:19;;;;;;;2.00;1.60;;;;;;;;;;5079296;28;20222;-77
2022/06/08 07:28:47;;;;;;;4.57;1.73;;;;;;;;;;5078752;28;20297;-77
2022/06/08 07:31:15;;;;;;;2.47;1.70;;;;;;;;;;5076940;28;20292;-78
2022/06/08 07:33:42;;;;;;;3.10;1.60;;;;;;;;;;5080102;28;20304;-78
2022/06/08 07:36:09;;;;;;;3.83;1.70;;;;;;;;;;5077811;28;20226;-77
2022/06/08 07:38:37;;;;;;;2.10;1.60;;;;;;;;;;5082365;28;20288;-78
2022/06/08 07:41:04;;;;;;;2.37;1.40;;;;;;;;;;5082038;28;20293;-78
2022/06/08 07:43:31;;;;;;;2.00;1.40;;;;;;;;;;5081269;28;20267;-78
2022/06/08 07:46:00;;;;;;;1.53;1.20;;;;;;;;;;5081646;28;20701;-77
2022/06/08 07:51:12;;;;;;;5.03;1.17;;;;;;;;;;5081007;28;20300;-77
2022/06/08 07:53:40;;;;;;;2.93;1.40;;;;;;;;;;5079162;28;20214;-77
2022/06/08 07:56:08;;;;;;;1.73;1.20;;;;;;;;;;5084356;28;20225;-78
2022/06/08 07:58:35;;;;;;;2.77;1.00;;;;;;;;;;5082879;28;20654;-77
2022/06/08 08:01:03;;;;;;;2.80;1.00;;;;;;;;;;5081094;28;20695;-78
2022/06/08 08:03:31;;;;;;;2.60;1.13;;;;;;;;;;5080392;28;20212;-78
2022/06/08 08:05:58;;;;;;;1.77;0.90;;;;;;;;;;5077368;28;20722;-77
2022/06/08 08:08:25;;;;;;;4.17;1.00;;;;;;;;;;5081377;28;20677;-76
2022/06/08 08:10:53;;;;;;;4.00;1.00;;;;;;;;;;5083126;28;20236;-77
2022/06/08 08:13:20;;;;;;;2.20;0.83;;;;;;;;;;5078080;28;20225;-77
2022/06/08 08:15:49;;;;;;;2.13;0.70;;;;;;;;;;5081605;28;20371;-77
2022/06/08 08:18:17;;;;;;;4.03;0.87;;;;;;;;;;5076134;28;20214;-76
2022/06/08 08:20:46;;;;;;;2.83;0.80;;;;;;;;;;5080201;28;20216;-77
2022/06/08 08:23:13;;;;;;;3.70;1.10;;;;;;;;;;5082001;28;20537;-77
2022/06/08 08:25:40;;;;;;;1.33;0.77;;;;;;;;;;5082005;28;20235;-76
2022/06/08 08:28:08;;;;;;;1.77;0.70;;;;;;;;;;5077037;28;20293;-75
2022/06/08 08:30:35;;;;;;;4.37;0.70;;;;;;;;;;5081825;28;20962;-76
2022/06/08 08:33:03;;;;;;;0.87;0.60;;;;;;;;;;5079648;28;20312;-77
2022/06/08 08:35:31;;;;;;;3.57;0.60;;;;;;;;;;5078411;28;20305;-76
2022/06/08 08:37:59;;;;;;;2.10;0.50;;;;;;;;;;5077861;28;20587;-76
2022/06/08 08:40:38;;;;;;;2.10;0.97;;;;;;;;;;5082884;28;20300;-75
2022/06/08 08:43:06;;;;;;;1.43;0.80;;;;;;;;;;5076019;28;20648;-76
2022/06/08 08:45:37;;;;;;;2.10;0.90;;;;;;;;;;5081523;28;20245;-77
2022/06/08 08:48:06;;;;;;;1.37;0.90;;;;;;;;;;5084052;28;20293;-77
2022/06/08 08:50:39;;;;;;;3.60;0.90;;;;;;;;;;5079119;28;20204;-78
2022/06/08 08:53:13;;;;;;;0.80;0.80;;;;;;;;;;5080267;28;20342;-78
2022/06/08 08:55:43;;;;;;;2.57;0.80;;;;;;;;;;5080241;28;20249;-77
2022/06/08 08:58:14;;;;;;;2.00;0.90;;;;;;;;;;5082830;28;20292;-77
2022/06/08 09:00:44;;;;;;;3.80;1.00;;;;;;;;;;5082574;28;20202;-78
2022/06/08 09:03:19;;;;;;;1.33;0.93;;;;;;;;;;5083871;28;20230;-77
2022/06/08 09:05:48;;;;;;;1.93;0.83;;;;;;;;;;5083519;28;20213;-79
2022/06/08 09:08:16;;;;;;;2.40;1.00;;;;;;;;;;5082312;28;20207;-78
2022/06/08 09:10:44;;;;;;;2.97;0.97;;;;;;;;;;5080903;28;20234;-77
2022/06/08 13:09:45;;;;;;;9.63;2.40;;;;;;;;;;5041025;28;20222;-84
2022/06/08 13:12:20;;;;;;;6.27;1.53;;;;;;;;;;5054705;28;20215;-84
2022/06/08 13:14:47;;;;;;;10.30;2.30;;;;;;;;;;5053210;28;20263;-84
2022/06/08 13:17:15;;;;;;;6.63;2.10;;;;;;;;;;5049288;28;20802;-83
2022/06/08 13:19:50;;;;;;;7.27;2.10;;;;;;;;;;5047028;28;20206;-82
2022/06/08 13:22:18;;;;;;;8.37;2.03;;;;;;;;;;5043690;28;20211;-84
2022/06/08 13:24:46;;;;;;;5.10;2.03;;;;;;;;;;5047230;28;20199;-84
2022/06/08 13:27:29;;;;;;;10.90;2.10;;;;;;;;;;5046709;28;20274;-84
2022/06/08 13:29:57;;;;;;;8.43;2.33;;;;;;;;;;5043834;28;20225;-83
2022/06/08 13:32:25;;;;;;;5.33;2.00;;;;;;;;;;5046543;28;20675;-83
2022/06/08 13:34:55;;;;;;;5.77;2.00;;;;;;;;;;5047289;28;20223;-83
2022/06/08 13:37:25;;;;;;;7.80;1.80;;;;;;;;;;5044523;28;20227;-82
2022/06/08 13:39:53;;;;;;;4.67;1.90;;;;;;;;;;5046657;28;20230;-83
2022/06/08 13:42:20;;;;;;;7.90;2.13;;;;;;;;;;5048948;28;20269;-82
2022/06/08 13:45:04;;;;;;;7.83;2.63;;;;;;;;;;5050682;28;20242;-83
2022/06/08 13:47:52;;;;;;;8.23;2.13;;;;;;;;;;5049004;28;20913;-81
2022/06/08 13:50:27;;;;;;;7.20;1.90;;;;;;;;;;5046378;28;20683;-83
2022/06/08 13:53:00;;;;;;;7.87;1.87;;;;;;;;;;5048733;28;20247;-82
2022/06/08 13:55:30;;;;;;;9.30;2.20;;;;;;;;;;5051221;28;20222;-84
2022/06/08 13:58:00;;;;;;;7.03;2.00;;;;;;;;;;5053529;28;20246;-83
2022/06/08 14:00:33;;;;;;;14.33;2.03;;;;;;;;;;5046668;28;20221;-82
2022/06/08 14:03:21;;;;;;;14.43;1.93;;;;;;;;;;5047300;28;20227;-84
2022/06/08 14:14:12;;;;;;;8.43;1.90;;;;;;;;;;5049640;28;20254;-82
2022/06/08 14:16:42;;;;;;;8.40;1.93;;;;;;;;;;5047517;28;20207;-82
2022/06/08 14:19:17;;;;;;;5.90;1.50;;;;;;;;;;5047567;28;20211;-82
2022/06/08 14:21:49;;;;;;;6.63;1.70;;;;;;;;;;5048130;28;20606;-83
2022/06/08 14:24:21;;;;;;;7.50;2.00;;;;;;;;;;5047536;28;20223;-81
2022/06/08 14:26:59;;;;;;;7.87;1.93;;;;;;;;;;5056272;28;20187;-86
2022/06/08 14:29:28;;;;;;;14.77;2.00;;;;;;;;;;5071672;28;20213;-85
2022/06/08 14:32:07;;;;;;;6.77;1.67;;;;;;;;;;5061592;28;20568;-83
2022/06/08 14:34:37;;;;;;;5.90;1.93;;;;;;;;;;5044625;28;20242;-81
2022/06/08 14:37:09;;;;;;;9.20;2.13;;;;;;;;;;5048504;28;20225;-82
2022/06/08 14:39:54;;;;;;;4.73;2.03;;;;;;;;;;5054184;28;20265;-82
2022/06/08 14:42:27;;;;;;;5.83;2.53;;;;;;;;;;5050606;28;20207;-82
2022/06/08 14:44:57;;;;;;;9.67;2.80;;;;;;;;;;5051547;28;21176;-81
2022/06/08 14:47:39;;;;;;;11.67;2.87;;;;;;;;;;5047922;28;20314;-82
2022/06/08 14:50:10;;;;;;;7.63;2.67;;;;;;;;;;5046082;28;20203;-82
2022/06/08 14:52:54;;;;;;;4.07;2.80;;;;;;;;;;5049747;28;20670;-83
2022/06/08 14:58:17;;;;;;;10.40;3.50;;;;;;;;;;5046410;28;20221;-81
2022/06/08 15:00:45;;;;;;;12.20;3.40;;;;;;;;;;5043015;28;20641;-82
2022/06/08 15:03:15;;;;;;;8.50;2.83;;;;;;;;;;5043984;28;20301;-82
2022/06/08 15:05:45;;;;;;;10.93;2.97;;;;;;;;;;5041427;28;20199;-81
2022/06/08 15:08:16;;;;;;;9.53;3.27;;;;;;;;;;5043076;28;20206;-82
2022/06/08 15:13:31;;;;;;;9.53;3.27;;;;;;;;;;5052570;23;20329;-80
2022/06/08 15:16:00;;;;;;;8.30;2.63;;;;;;;;;;5079020;28;20707;-81
2022/06/08 15:18:27;;;;;;;10.27;2.33;;;;;;;;;;5084357;28;20213;-80
2022/06/08 15:20:55;;;;;;;8.00;2.40;;;;;;;;;;5085869;28;20651;-81
2022/06/08 15:23:23;;;;;;;5.00;1.50;;;;;;;;;;5085976;28;20252;-82
2022/06/08 15:25:52;;;;;;;6.83;2.27;;;;;;;;;;5072175;28;20194;-80
2022/06/08 15:28:20;;;;;;;4.30;1.67;;;;;;;;;;5072727;28;20229;-81
2022/06/08 15:30:49;;;;;;;5.03;1.73;;;;;;;;;;5074830;28;20259;-82
2022/06/08 15:33:17;;;;;;;4.33;1.80;;;;;;;;;;5077690;28;20249;-82
2022/06/08 15:35:54;;;;;;;5.47;1.50;;;;;;;;;;5070548;28;20223;-80
2022/06/08 15:38:23;;;;;;;2.40;1.37;;;;;;;;;;5069097;28;20221;-82
2022/06/08 15:40:50;;;;;;;6.57;2.03;;;;;;;;;;5068689;28;20673;-80
2022/06/08 15:43:18;;;;;;;4.20;1.40;;;;;;;;;;5075036;28;20229;-80
2022/06/08 15:45:45;;;;;;;4.17;1.60;;;;;;;;;;5067499;28;20207;-82
2022/06/08 15:48:13;;;;;;;4.60;1.80;;;;;;;;;;5072393;28;20210;-81
2022/06/08 15:50:43;;;;;;;4.50;1.77;;;;;;;;;;5069488;28;20289;-81
2022/06/08 15:53:14;;;;;;;4.90;1.87;;;;;;;;;;5067512;28;20295;-82
2022/06/08 15:55:44;;;;;;;4.17;1.20;;;;;;;;;;5066118;28;20313;-80
2022/06/08 15:58:15;;;;;;;5.23;1.30;;;;;;;;;;5066839;28;20198;-82
2022/06/08 16:00:42;;;;;;;2.77;1.40;;;;;;;;;;5075198;28;20203;-82
2022/06/08 16:03:12;;;;;;;3.63;1.17;;;;;;;;;;5072898;28;20218;-83
2022/06/08 16:05:40;;;;;;;3.43;1.40;;;;;;;;;;5071960;28;20615;-79
2022/06/08 16:08:07;;;;;;;6.27;1.60;;;;;;;;;;5075588;28;20217;-80
2022/06/08 16:10:35;;;;;;;4.40;1.53;;;;;;;;;;5075857;28;20336;-81
2022/06/08 16:13:04;;;;;;;4.83;1.57;;;;;;;;;;5080015;28;20206;-79
2022/06/08 16:15:32;;;;;;;7.77;1.70;;;;;;;;;;5074011;28;20260;-80
2022/06/08 16:17:59;;;;;;;4.73;1.30;;;;;;;;;;5074390;28;20216;-80
2022/06/08 16:20:28;;;;;;;3.63;1.20;;;;;;;;;;5078782;28;20236;-80
2022/06/08 16:22:55;;;;;;;3.53;1.33;;;;;;;;;;5077640;28;20237;-79
2022/06/08 16:25:23;;;;;;;4.37;1.40;;;;;;;;;;5072926;28;20289;-80
2022/06/08 16:27:51;;;;;;;4.50;1.23;;;;;;;;;;5076935;28;20737;-79
2022/06/08 16:30:21;;;;;;;5.00;1.30;;;;;;;;;;5076924;28;20722;-81
2022/06/08 16:32:48;;;;;;;5.97;1.67;;;;;;;;;;5075888;28;20662;-80
2022/06/08 16:35:18;;;;;;;5.93;1.23;;;;;;;;;;5079125;28;20223;-79
2022/06/08 16:37:45;;;;;;;5.43;2.37;;;;;;;;;;5078383;28;20206;-80
2022/06/08 16:40:14;;;;;;;5.73;1.83;;;;;;;;;;5077592;28;20206;-80
2022/06/08 16:42:42;;;;;;;5.00;1.50;;;;;;;;;;5080457;28;20271;-81
2022/06/08 16:45:09;;;;;;;4.60;1.30;;;;;;;;;;5080322;28;20226;-81
2022/06/08 16:47:38;;;;;;;6.60;1.50;;;;;;;;;;5077350;28;20265;-81
2022/06/08 16:50:07;;;;;;;4.43;1.13;;;;;;;;;;5081633;28;20206;-83
2022/06/08 16:52:34;;;;;;;4.13;1.40;;;;;;;;;;5081716;28;20222;-82
2022/06/08 16:55:01;;;;;;;5.17;1.60;;;;;;;;;;5079679;28;20297;-82
2022/06/08 17:00:15;;;;;;;4.37;1.30;;;;;;;;;;5082222;28;20263;-80
2022/06/08 17:02:44;;;;;;;3.03;1.30;;;;;;;;;;5081006;28;20847;-81
2022/06/08 17:05:12;;;;;;;3.63;1.30;;;;;;;;;;5079600;28;20224;-80
2022/06/08 17:07:41;;;;;;;6.60;2.00;;;;;;;;;;5073598;28;20289;-81
2022/06/08 17:10:10;;;;;;;4.17;1.70;;;;;;;;;;5075876;28;20206;-81
2022/06/08 17:12:37;;;;;;;5.80;1.63;;;;;;;;;;5074556;28;20237;-80
2022/06/08 17:15:05;;;;;;;3.33;1.33;;;;;;;;;;5075069;28;20240;-80
2022/06/08 17:17:32;;;;;;;2.80;1.27;;;;;;;;;;5078052;28;20721;-80
2022/06/08 17:20:01;;;;;;;4.93;1.43;;;;;;;;;;5075198;28;20297;-81
2022/06/08 17:22:28;;;;;;;5.77;1.73;;;;;;;;;;5073454;28;20296;-80
2022/06/08 17:24:55;;;;;;;3.57;1.40;;;;;;;;;;5077173;28;20226;-80
2022/06/08 17:27:27;;;;;;;4.27;1.27;;;;;;;;;;5073506;28;20203;-80
2022/06/08 17:29:54;;;;;;;3.33;1.50;;;;;;;;;;5076546;28;20622;-83
2022/06/08 17:32:21;;;;;;;4.23;1.70;;;;;;;;;;5074792;28;20266;-81
2022/06/08 17:34:48;;;;;;;6.90;1.50;;;;;;;;;;5077899;28;20237;-83
2022/06/08 17:37:17;;;;;;;5.37;2.00;;;;;;;;;;5073057;28;20211;-80
2022/06/08 17:39:46;;;;;;;4.93;1.47;;;;;;;;;;5074405;28;20285;-81
2022/06/08 17:42:23;;;;;;;4.23;1.70;;;;;;;;;;5076922;28;20206;-82
2022/06/08 17:44:50;;;;;;;4.03;1.70;;;;;;;;;;5075608;28;20225;-82
2022/06/08 17:47:20;;;;;;;4.60;1.70;;;;;;;;;;5075955;28;20260;-82
2022/06/08 17:49:47;;;;;;;7.30;1.83;;;;;;;;;;5073403;28;20205;-82
2022/06/08 17:52:14;;;;;;;3.77;1.80;;;;;;;;;;5073274;28;20229;-79
2022/06/08 17:54:43;;;;;;;2.53;1.67;;;;;;;;;;5072644;28;20222;-80
2022/06/08 17:57:10;;;;;;;4.13;1.90;;;;;;;;;;5072161;28;20788;-82
2022/06/08 17:59:40;;;;;;;3.00;1.20;;;;;;;;;;5075012;28;20260;-80
2022/06/08 18:02:07;;;;;;;2.67;1.23;;;;;;;;;;5071593;28;20305;-80
2022/06/08 18:04:35;;;;;;;3.30;0.77;;;;;;;;;;5073583;28;20219;-80
2022/06/08 18:07:03;;;;;;;1.37;0.63;;;;;;;;;;5070718;28;20262;-81
2022/06/08 18:09:30;;;;;;;2.33;0.83;;;;;;;;;;5068930;28;20652;-79
2022/06/08 18:11:58;;;;;;;1.07;0.87;;;;;;;;;;5073307;28;20202;-81
2022/06/08 18:14:26;;;;;;;1.83;0.73;;;;;;;;;;5072041;28;20240;-81
2022/06/08 18:16:53;;;;;;;3.70;0.80;;;;;;;;;;5071110;28;20233;-80
2022/06/08 18:19:20;;;;;;;5.53;0.70;;;;;;;;;;5066797;28;20203;-82
2022/06/08 18:21:48;;;;;;;2.80;0.50;;;;;;;;;;5069368;28;20202;-83
2022/06/08 18:24:15;;;;;;;1.27;0.70;;;;;;;;;;5071003;28;20313;-80
2022/06/08 18:26:44;;;;;;;0.87;0.43;;;;;;;;;;5072368;28;20297;-82
2022/06/08 18:29:14;;;;;;;3.73;0.60;;;;;;;;;;5069513;28;20538;-82
2022/06/08 18:31:41;;;;;;;2.13;0.63;;;;;;;;;;5071713;28;20214;-81
2022/06/08 18:34:11;;;;;;;1.40;0.60;;;;;;;;;;5072209;28;20314;-83
2022/06/08 18:36:38;;;;;;;4.03;0.90;;;;;;;;;;5073899;28;20214;-83
2022/06/08 18:39:05;;;;;;;1.40;0.40;;;;;;;;;;5074385;28;20214;-81
2022/06/08 18:41:33;;;;;;;1.87;0.80;;;;;;;;;;5073291;28;20221;-82
2022/06/08 18:44:01;;;;;;;1.37;0.60;;;;;;;;;;5072215;28;20713;-82
2022/06/08 18:46:30;;;;;;;2.43;0.60;;;;;;;;;;5072705;28;20239;-84
2022/06/08 18:48:57;;;;;;;1.27;0.70;;;;;;;;;;5075358;28;20206;-82
2022/06/08 18:51:25;;;;;;;2.47;0.90;;;;;;;;;;5072678;28;20202;-84
2022/06/08 18:53:52;;;;;;;2.13;0.73;;;;;;;;;;5073724;28;20226;-83
2022/06/08 18:56:21;;;;;;;2.93;0.70;;;;;;;;;;5069433;28;20317;-82
2022/06/08 18:58:50;;;;;;;0.97;0.60;;;;;;;;;;5073663;28;20497;-83
2022/06/08 19:01:19;;;;;;;1.30;0.70;;;;;;;;;;5074667;28;20244;-83
2022/06/08 19:03:47;;;;;;;1.77;0.77;;;;;;;;;;5077716;28;20238;-81
2022/06/08 19:06:16;;;;;;;4.37;0.70;;;;;;;;;;5070844;28;20727;-82
2022/06/08 19:08:43;;;;;;;1.87;0.60;;;;;;;;;;5075596;28;20220;-83